Time;durP1;ratioP1;P1;durP2;ratioP2;P2;SDS_P1;SDS_P2;PMS_P1;PMS_P2;Temp;Humidity;BMP_temperature;BMP_pressure;BME280_temperature;BME280_humidity;BME280_pressure;Samples;Min_cycle;Max_cycle;Signal;HPM_P1;HPM_P2
2022/07/24 00:01:21;;;;;;;;;;;;;;;16.97;73.93;100931.69;5036463;28;1360;-90
2022/07/24 00:03:46;;;;;;;;;;;;;;;17.03;73.28;100924.88;5026270;28;1573;-90
2022/07/24 00:06:12;;;;;;;;;;;;;;;16.95;73.47;100926.47;5038059;28;1296;-88
2022/07/24 00:08:37;;;;;;;;;;;;;;;17.05;73.23;100924.59;5034115;28;1945;-90
2022/07/24 00:11:02;;;;;;;;;;;;;;;17.07;74.13;100919.56;5037818;28;1347;-90
2022/07/24 00:13:27;;;;;;;;;;;;;;;16.80;74.51;100914.94;5037621;28;1710;-90
2022/07/24 00:15:52;;;;;;;;;;;;;;;16.63;74.22;100933.00;5037546;28;1333;-90
2022/07/24 00:18:17;;;;;;;;;;;;;;;16.68;74.21;100923.78;5036873;28;1241;-90
2022/07/24 00:20:43;;;;;;;;;;;;;;;16.69;74.51;100933.69;5037196;28;1121;-90
2022/07/24 00:23:08;;;;;;;;;;;;;;;16.72;73.88;100933.09;5037249;28;1356;-90
2022/07/24 00:25:33;;;;;;;;;;;;;;;16.78;72.89;100929.06;5037774;28;1441;-90
2022/07/24 00:27:58;;;;;;;;;;;;;;;16.88;72.52;100934.38;5037250;28;1449;-89
2022/07/24 00:30:23;;;;;;;;;;;;;;;16.70;73.02;100927.03;5030493;28;1902;-90
2022/07/24 00:32:49;;;;;;;;;;;;;;;16.63;73.46;100937.72;5032636;28;1626;-90
2022/07/24 00:35:14;;;;;;;;;;;;;;;16.76;74.39;100930.53;5040740;28;1264;-90
2022/07/24 00:37:39;;;;;;;;;;;;;;;16.77;73.53;100927.44;5042205;28;1393;-90
2022/07/24 00:40:05;;;;;;;;;;;;;;;16.46;73.64;100926.47;5062067;28;1417;-90
2022/07/24 00:42:32;;;;;;;;;;;;;;;16.45;74.15;100936.69;5043086;28;1478;-90
2022/07/24 00:44:58;;;;;;;;;;;;;;;16.48;74.18;100930.56;5042430;28;1582;-90
2022/07/24 00:47:23;;;;;;;;;;;;;;;16.53;74.38;100926.84;5041838;28;1360;-90
2022/07/24 00:49:48;;;;;;;;;;;;;;;16.44;74.78;100935.06;5041776;28;1902;-90
2022/07/24 00:52:13;;;;;;;;;;;;;;;16.46;74.26;100934.75;5042117;28;1352;-90
2022/07/24 00:54:38;;;;;;;;;;;;;;;16.46;73.74;100931.97;5042680;28;1611;-90
2022/07/24 00:57:04;;;;;;;;;;;;;;;16.37;74.16;100933.84;5039812;28;1290;-90
2022/07/24 00:59:29;;;;;;;;;;;;;;;16.22;74.50;100933.03;5036833;28;1415;-90
2022/07/24 01:01:54;;;;;;;;;;;;;;;16.31;74.20;100932.31;5035978;28;1426;-90
2022/07/24 01:04:19;;;;;;;;;;;;;;;16.46;73.74;100926.47;5035930;28;1325;-90
2022/07/24 01:06:45;;;;;;;;;;;;;;;16.18;74.01;100936.69;5036930;28;1355;-90
2022/07/24 01:09:11;;;;;;;;;;;;;;;16.07;74.72;100929.78;5036521;28;1890;-91
2022/07/24 01:11:36;;;;;;;;;;;;;;;15.95;75.17;100930.25;5036127;28;1365;-91
2022/07/24 01:14:01;;;;;;;;;;;;;;;16.05;74.87;100926.50;5036324;28;1618;-90
2022/07/24 01:16:26;;;;;;;;;;;;;;;16.18;74.55;100915.44;5036629;28;1321;-90
2022/07/24 01:18:52;;;;;;;;;;;;;;;16.05;74.62;100910.75;5028123;28;1489;-90
2022/07/24 01:21:17;;;;;;;;;;;;;;;15.81;74.75;100913.69;5035880;28;1573;-90
2022/07/24 01:23:42;;;;;;;;;;;;;;;15.69;76.02;100918.88;5035880;28;1386;-90
2022/07/24 01:26:07;;;;;;;;;;;;;;;15.75;75.96;100916.84;5035978;28;1284;-90
2022/07/24 01:28:32;;;;;;;;;;;;;;;15.73;75.25;100919.09;5033883;28;1910;-90
2022/07/24 01:30:58;;;;;;;;;;;;;;;15.67;75.60;100909.25;5020378;28;1495;-90
2022/07/24 01:33:23;;;;;;;;;;;;;;;15.71;75.18;100918.59;5036043;28;1339;-90
2022/07/24 01:35:48;;;;;;;;;;;;;;;15.72;74.90;100910.00;5036052;28;1490;-90
2022/07/24 01:38:13;;;;;;;;;;;;;;;15.76;75.05;100910.19;5036135;28;1529;-90
2022/07/24 01:40:39;;;;;;;;;;;;;;;15.82;75.00;100914.53;5028961;28;1374;-90
2022/07/24 01:43:05;;;;;;;;;;;;;;;15.58;75.54;100902.81;5035651;28;1431;-90
2022/07/24 01:45:30;;;;;;;;;;;;;;;15.64;75.45;100910.72;5036001;28;1307;-89
2022/07/24 01:47:55;;;;;;;;;;;;;;;15.70;74.88;100912.25;5035978;28;1236;-89
2022/07/24 01:50:20;;;;;;;;;;;;;;;15.79;74.77;100913.19;5031048;28;1977;-89
2022/07/24 01:52:46;;;;;;;;;;;;;;;15.61;74.99;100911.31;5035547;28;1491;-89
2022/07/24 01:55:11;;;;;;;;;;;;;;;15.68;75.29;100916.44;5035419;28;1300;-90
2022/07/24 01:57:36;;;;;;;;;;;;;;;15.56;75.58;100914.19;5036064;28;1427;-90
2022/07/24 02:00:04;;;;;;;;;;;;;;;15.63;75.91;100913.78;5035116;28;1455;-90
2022/07/24 02:02:29;;;;;;;;;;;;;;;15.51;75.82;100909.53;5035171;28;1327;-89
2022/07/24 02:04:55;;;;;;;;;;;;;;;15.37;75.48;100908.69;5034493;28;1383;-90
2022/07/24 02:07:20;;;;;;;;;;;;;;;15.22;76.22;100911.72;5038697;28;1401;-90
2022/07/24 02:09:45;;;;;;;;;;;;;;;15.37;75.76;100911.44;5037188;28;1902;-90
2022/07/24 02:12:11;;;;;;;;;;;;;;;15.44;75.17;100906.34;5036966;28;1411;-90
2022/07/24 02:14:36;;;;;;;;;;;;;;;15.37;75.17;100908.69;5032367;28;1325;-90
2022/07/24 02:17:01;;;;;;;;;;;;;;;15.41;75.26;100909.69;5025807;28;1304;-90
2022/07/24 02:19:27;;;;;;;;;;;;;;;15.20;75.42;100908.41;5060356;28;1241;-91
2022/07/24 02:21:52;;;;;;;;;;;;;;;15.22;75.21;100908.94;5060089;28;1279;-90
2022/07/24 02:24:17;;;;;;;;;;;;;;;15.12;75.52;100907.19;5041855;28;1291;-91
2022/07/24 02:26:43;;;;;;;;;;;;;;;15.05;76.88;100905.91;5040213;28;1177;-90
2022/07/24 02:29:08;;;;;;;;;;;;;;;14.72;77.87;100910.53;5039600;28;1991;-90
2022/07/24 02:31:33;;;;;;;;;;;;;;;14.77;78.28;100914.06;5038835;28;1583;-90
2022/07/24 02:33:58;;;;;;;;;;;;;;;14.92;76.76;100920.44;5039273;28;1315;-89
2022/07/24 02:36:24;;;;;;;;;;;;;;;14.73;77.66;100912.19;5039156;28;1521;-90
2022/07/24 02:38:49;;;;;;;;;;;;;;;14.76;76.43;100906.09;5039205;28;1343;-90
2022/07/24 02:41:14;;;;;;;;;;;;;;;14.94;76.57;100901.69;5039305;28;1517;-90
2022/07/24 02:43:39;;;;;;;;;;;;;;;14.88;76.98;100906.47;5056692;28;1814;-90
2022/07/24 02:46:04;;;;;;;;;;;;;;;15.07;75.62;100917.44;5039138;28;1346;-90
2022/07/24 02:48:29;;;;;;;;;;;;;;;14.74;75.99;100913.81;5039184;28;1350;-90
2022/07/24 02:50:54;;;;;;;;;;;;;;;14.85;77.11;100918.06;5038719;28;1902;-90
2022/07/24 02:53:20;;;;;;;;;;;;;;;14.58;77.62;100918.75;5038535;28;1356;-90
2022/07/24 02:55:45;;;;;;;;;;;;;;;14.51;77.63;100914.72;5038724;28;1512;-90
2022/07/24 02:58:10;;;;;;;;;;;;;;;14.66;78.03;100911.75;5038794;28;1402;-90
2022/07/24 03:00:35;;;;;;;;;;;;;;;14.70;76.65;100918.31;5038887;28;1338;-90
2022/07/24 03:03:01;;;;;;;;;;;;;;;14.66;77.13;100923.59;5038572;28;1397;-90
2022/07/24 03:05:26;;;;;;;;;;;;;;;14.63;77.54;100923.38;5039269;28;1370;-89
2022/07/24 03:07:51;;;;;;;;;;;;;;;14.76;78.13;100919.88;5038768;28;1283;-89
2022/07/24 03:10:16;;;;;;;;;;;;;;;14.60;76.68;100922.03;5038524;28;1897;-90
2022/07/24 03:12:42;;;;;;;;;;;;;;;14.38;77.77;100917.06;5038594;28;1503;-90
2022/07/24 03:15:08;;;;;;;;;;;;;;;14.53;76.44;100926.25;5038699;28;1378;-89
2022/07/24 03:17:33;;;;;;;;;;;;;;;14.45;76.42;100925.00;5029631;28;1514;-89
2022/07/24 03:19:58;;;;;;;;;;;;;;;14.44;78.50;100928.88;5038282;28;1561;-89
2022/07/24 03:22:23;;;;;;;;;;;;;;;14.50;76.99;100927.66;5039385;28;1296;-89
2022/07/24 03:24:49;;;;;;;;;;;;;;;14.57;76.87;100922.59;5030187;28;1236;-89
2022/07/24 03:27:14;;;;;;;;;;;;;;;14.54;77.47;100930.66;5038119;28;1371;-90
2022/07/24 03:29:39;;;;;;;;;;;;;;;14.56;77.80;100931.97;5026717;28;1910;-90
2022/07/24 03:32:05;;;;;;;;;;;;;;;14.56;77.63;100928.41;5021045;28;1256;-89
2022/07/24 03:34:30;;;;;;;;;;;;;;;14.62;76.06;100930.81;5055838;28;1156;-90
2022/07/24 03:36:55;;;;;;;;;;;;;;;14.54;76.20;100925.97;5037776;28;1538;-89
2022/07/24 03:39:21;;;;;;;;;;;;;;;14.35;78.06;100933.34;5038453;28;1311;-89
2022/07/24 03:41:47;;;;;;;;;;;;;;;14.13;78.27;100931.13;5038614;28;1357;-90
2022/07/24 03:44:13;;;;;;;;;;;;;;;14.21;77.54;100933.22;5038477;28;1363;-90
2022/07/24 03:46:38;;;;;;;;;;;;;;;14.33;76.77;100930.88;5038392;28;1629;-90
2022/07/24 03:49:04;;;;;;;;;;;;;;;14.19;78.11;100935.47;5038552;28;1897;-90
2022/07/24 03:51:29;;;;;;;;;;;;;;;14.13;78.14;100930.31;5038308;28;1224;-90
2022/07/24 03:53:54;;;;;;;;;;;;;;;14.33;78.67;100930.88;5035137;28;1291;-90
2022/07/24 03:56:19;;;;;;;;;;;;;;;14.44;78.12;100930.78;5038089;28;1487;-90
2022/07/24 03:58:45;;;;;;;;;;;;;;;14.28;77.48;100933.72;5038024;28;1559;-90
2022/07/24 04:01:10;;;;;;;;;;;;;;;14.18;78.88;100933.03;5037772;28;1398;-90
2022/07/24 04:03:43;;;;;;;;;;;;;;;14.18;77.43;100922.81;5037761;28;1340;-90
2022/07/24 04:06:09;;;;;;;;;;;;;;;14.19;78.27;100918.13;5038211;28;1470;-91
2022/07/24 04:08:34;;;;;;;;;;;;;;;14.20;78.35;100930.78;5037822;28;1512;-90
2022/07/24 04:10:59;;;;;;;;;;;;;;;14.15;78.64;100928.91;5037687;28;1608;-91
2022/07/24 04:13:38;;;;;;;;;;;;;;;14.30;77.40;100925.97;5036528;28;1431;-90
2022/07/24 04:16:03;;;;;;;;;;;;;;;14.00;77.70;100927.16;5036677;28;1315;-90
2022/07/24 04:18:29;;;;;;;;;;;;;;;14.10;77.89;100920.72;5037331;28;1623;-90
2022/07/24 04:20:55;;;;;;;;;;;;;;;14.04;78.16;100932.88;5055297;28;1504;-90
2022/07/24 04:23:21;;;;;;;;;;;;;;;14.07;78.45;100926.81;5036952;28;1526;-90
2022/07/24 04:25:46;;;;;;;;;;;;;;;14.23;78.66;100930.19;5055397;28;1864;-90
2022/07/24 04:28:17;;;;;;;;;;;;;;;14.29;78.67;100926.28;5042794;28;1434;-90
2022/07/24 04:30:42;;;;;;;;;;;;;;;14.14;77.99;100919.00;5033778;28;1898;-90
2022/07/24 04:33:07;;;;;;;;;;;;;;;14.12;78.09;100917.69;5034915;28;1340;-91
2022/07/24 04:35:32;;;;;;;;;;;;;;;14.17;78.59;100923.94;5019942;28;1469;-90
2022/07/24 04:37:58;;;;;;;;;;;;;;;14.19;79.68;100918.97;5036903;28;1342;-91
2022/07/24 04:40:23;;;;;;;;;;;;;;;14.29;79.67;100918.03;5036828;28;1715;-90
2022/07/24 04:42:48;;;;;;;;;;;;;;;14.28;79.91;100919.13;5036888;28;1359;-90
2022/07/24 04:45:13;;;;;;;;;;;;;;;14.16;79.06;100908.53;5055275;28;1169;-90
2022/07/24 04:47:39;;;;;;;;;;;;;;;13.96;80.21;100915.09;5037035;28;1465;-90
2022/07/24 04:50:05;;;;;;;;;;;;;;;14.21;81.07;100921.41;5037176;28;1914;-90
2022/07/24 04:52:30;;;;;;;;;;;;;;;14.28;79.78;100919.13;5036629;28;1411;-90
2022/07/24 04:54:55;;;;;;;;;;;;;;;14.08;81.04;100922.13;5036490;28;1544;-91
2022/07/24 04:57:21;;;;;;;;;;;;;;;13.98;82.17;100929.38;5036923;28;1312;-90
2022/07/24 04:59:46;;;;;;;;;;;;;;;13.96;81.26;100926.09;5037046;28;1197;-90
2022/07/24 05:02:11;;;;;;;;;;;;;;;13.96;81.97;100923.34;5036577;28;1339;-90
2022/07/24 05:04:37;;;;;;;;;;;;;;;14.17;81.51;100923.94;5037270;28;1216;-90
2022/07/24 05:07:03;;;;;;;;;;;;;;;14.19;81.62;100929.16;5037211;28;1173;-90
2022/07/24 05:09:28;;;;;;;;;;;;;;;14.23;81.72;100924.69;5028142;28;1893;-90
2022/07/24 05:11:54;;;;;;;;;;;;;;;14.28;82.69;100922.72;5036379;28;1224;-90
2022/07/24 05:14:19;;;;;;;;;;;;;;;14.26;82.97;100919.41;5036301;28;1350;-89
2022/07/24 05:16:44;;;;;;;;;;;;;;;14.41;82.69;100925.88;5036133;28;1632;-90
2022/07/24 05:19:15;;;;;;;;;;;;;;;14.42;82.58;100922.00;5036205;28;1493;-90
2022/07/24 05:21:43;;;;;;;;;;;;;;;14.64;83.09;100930.50;5052977;28;1248;-91
2022/07/24 05:24:13;;;;;;;;;;;;;;;14.52;82.80;100933.72;5020011;28;1571;-90
2022/07/24 05:27:02;;;;;;;;;;;;;;;14.54;83.36;100931.50;5053673;28;1082;-90
2022/07/24 05:29:29;;;;;;;;;;;;;;;14.69;84.38;100927.69;5052865;28;1905;-90
2022/07/24 05:31:56;;;;;;;;;;;;;;;14.73;84.66;100921.28;5018340;28;1322;-90
2022/07/24 05:34:22;;;;;;;;;;;;;;;14.85;84.80;100922.75;5049931;28;1346;-90
2022/07/24 05:36:47;;;;;;;;;;;;;;;14.91;83.72;100924.31;5035962;28;1545;-91
2022/07/24 05:39:13;;;;;;;;;;;;;;;14.96;84.28;100913.22;5036859;28;1199;-90
2022/07/24 05:41:38;;;;;;;;;;;;;;;15.03;84.19;100908.97;5036885;28;1415;-90
2022/07/24 05:44:04;;;;;;;;;;;;;;;15.13;83.60;100911.56;5037503;28;1244;-90
2022/07/24 05:46:30;;;;;;;;;;;;;;;15.15;83.43;100906.56;5037397;28;953;-90
2022/07/24 05:48:55;;;;;;;;;;;;;;;15.24;83.65;100903.09;5032413;28;1951;-91
2022/07/24 05:51:22;;;;;;;;;;;;;;;15.22;84.09;100908.94;5054467;28;1284;-90
2022/07/24 05:53:48;;;;;;;;;;;;;;;15.33;84.68;100910.38;5017250;28;1386;-90
2022/07/24 05:56:13;;;;;;;;;;;;;;;15.35;84.09;100905.41;5037337;28;1410;-90
2022/07/24 05:58:38;;;;;;;;;;;;;;;15.37;84.67;100905.09;5037393;28;1202;-90
2022/07/24 06:01:03;;;;;;;;;;;;;;;15.41;83.94;100906.94;5036964;28;1477;-90
2022/07/24 06:03:29;;;;;;;;;;;;;;;15.50;84.09;100902.38;5019694;28;1343;-90
2022/07/24 06:05:54;;;;;;;;;;;;;;;15.53;84.16;100900.94;5036159;28;1395;-90
2022/07/24 06:08:19;;;;;;;;;;;;;;;15.57;83.50;100895.69;5036973;28;1418;-90
2022/07/24 06:10:44;;;;;;;;;;;;;;;15.60;84.00;100897.81;5037098;28;1968;-90
2022/07/24 06:13:10;;;;;;;;;;;;;;;15.64;83.92;100888.63;5054788;28;1272;-90
2022/07/24 06:15:35;;;;;;;;;;;;;;;15.67;84.17;100892.72;5049471;28;896;-91
2022/07/24 06:18:00;;;;;;;;;;;;;;;15.71;84.59;100891.00;5036985;28;1667;-90
2022/07/24 06:20:26;;;;;;;;;;;;;;;15.73;84.75;100891.50;5037009;28;1216;-90
2022/07/24 06:22:51;;;;;;;;;;;;;;;15.73;84.24;100886.81;5036818;28;1221;-90
2022/07/24 06:25:16;;;;;;;;;;;;;;;15.77;83.84;100887.81;5036482;28;1058;-90
2022/07/24 06:27:42;;;;;;;;;;;;;;;15.83;84.51;100885.78;5030875;28;1425;-90
2022/07/24 06:30:11;;;;;;;;;;;;;;;15.87;85.22;100882.09;5035266;28;1965;-90
2022/07/24 06:32:37;;;;;;;;;;;;;;;15.89;85.52;100877.09;5023527;28;1340;-90
2022/07/24 06:35:02;;;;;;;;;;;;;;;15.96;85.46;100884.16;5035592;28;1338;-90
2022/07/24 06:37:27;;;;;;;;;;;;;;;16.02;84.94;100886.50;5037762;28;1309;-90
2022/07/24 06:39:52;;;;;;;;;;;;;;;16.03;85.27;100882.59;5037512;28;1576;-91
2022/07/24 06:42:18;;;;;;;;;;;;;;;16.10;84.79;100880.25;5042615;28;1463;-91
2022/07/24 06:44:59;;;;;;;;;;;;;;;16.14;84.79;100873.00;5045202;28;1416;-91
2022/07/24 06:47:25;;;;;;;;;;;;;;;16.17;85.19;100877.88;5047563;28;1873;-92
2022/07/24 06:49:51;;;;;;;;;;;;;;;16.23;85.31;100862.03;5041673;28;1898;-90
2022/07/24 06:52:16;;;;;;;;;;;;;;;16.30;85.08;100858.84;5039022;28;1360;-90
2022/07/24 06:54:41;;;;;;;;;;;;;;;16.35;84.90;100854.03;5038401;28;1442;-89
2022/07/24 06:57:06;;;;;;;;;;;;;;;16.42;84.70;100857.16;5035808;28;1244;-90
2022/07/24 06:59:32;;;;;;;;;;;;;;;16.51;85.65;100851.72;5039515;28;1610;-90
2022/07/24 07:01:57;;;;;;;;;;;;;;;16.53;85.44;100861.34;5039085;28;1414;-89
2022/07/24 07:04:22;;;;;;;;;;;;;;;16.57;83.76;100862.38;5039070;28;1344;-90
2022/07/24 07:06:47;;;;;;;;;;;;;;;16.64;82.71;100868.31;5037974;28;1334;-91
2022/07/24 07:09:12;;;;;;;;;;;;;;;16.68;80.07;100860.19;5040976;28;1894;-90
2022/07/24 07:11:38;;;;;;;;;;;;;;;16.78;81.81;100854.44;5042913;28;1574;-90
2022/07/24 07:14:03;;;;;;;;;;;;;;;16.90;81.14;100865.75;5041911;28;1265;-90
2022/07/24 07:16:29;;;;;;;;;;;;;;;16.94;78.94;100861.22;5058941;28;1920;-90
2022/07/24 07:18:54;;;;;;;;;;;;;;;16.96;78.79;100864.50;5046013;28;1493;-90
2022/07/24 07:21:19;;;;;;;;;;;;;;;17.00;80.01;100862.75;5046385;28;1337;-90
2022/07/24 07:23:44;;;;;;;;;;;;;;;17.02;79.93;100868.75;5043895;28;1312;-90
2022/07/24 07:26:09;;;;;;;;;;;;;;;17.08;79.22;100863.13;5036066;28;1378;-90
2022/07/24 07:28:35;;;;;;;;;;;;;;;17.12;78.98;100867.69;5062890;28;1347;-89
2022/07/24 07:31:00;;;;;;;;;;;;;;;17.21;78.91;100864.97;5044697;28;1898;-90
2022/07/24 07:33:26;;;;;;;;;;;;;;;17.22;77.50;100869.38;5043769;28;1525;-90
2022/07/24 07:35:51;;;;;;;;;;;;;;;17.21;78.29;100860.28;5043230;28;1880;-89
2022/07/24 07:38:16;;;;;;;;;;;;;;;16.86;77.56;100806.69;5056477;28;1857;-90
2022/07/24 07:40:41;;;;;;;;;;;;;;;17.33;77.56;100859.69;5038182;28;1191;-89
2022/07/24 07:43:07;;;;;;;;;;;;;;;17.39;77.38;100855.66;5023444;28;1873;-90
2022/07/24 07:45:32;;;;;;;;;;;;;;;17.38;77.10;100852.06;5026559;28;1407;-90
2022/07/24 07:47:57;;;;;;;;;;;;;;;17.40;77.89;100857.28;5038901;28;1391;-90
2022/07/24 07:50:22;;;;;;;;;;;;;;;17.44;77.66;100860.25;5038671;28;1957;-89
2022/07/24 07:52:48;;;;;;;;;;;;;;;17.47;77.51;100860.41;5038219;28;1394;-90
2022/07/24 07:55:13;;;;;;;;;;;;;;;17.49;78.61;100858.16;5027144;28;1322;-90
2022/07/24 07:57:41;;;;;;;;;;;;;;;17.53;78.88;100863.84;5035446;28;1214;-90
2022/07/24 08:00:06;;;;;;;;;;;;;;;17.55;77.84;100861.59;5023139;28;1428;-89
2022/07/24 08:02:31;;;;;;;;;;;;;;;17.60;78.71;100856.75;5028624;28;1212;-89
2022/07/24 08:04:56;;;;;;;;;;;;;;;17.68;78.20;100857.97;5035048;28;1575;-89
2022/07/24 08:07:22;;;;;;;;;;;;;;;17.73;78.34;100850.31;5037801;28;1148;-90
2022/07/24 08:09:47;;;;;;;;;;;;;;;17.78;77.53;100852.94;5040198;28;1886;-88
2022/07/24 08:12:12;;;;;;;;;;;;;;;17.81;78.08;100845.94;5037053;28;1889;-91
2022/07/24 08:14:38;;;;;;;;;;;;;;;17.85;78.27;100852.47;5038276;28;1302;-90
2022/07/24 08:17:03;;;;;;;;;;;;;;;17.91;77.95;100840.13;5038593;28;1356;-90
2022/07/24 08:19:28;;;;;;;;;;;;;;;17.99;77.55;100841.28;5031899;28;1556;-90
2022/07/24 08:21:53;;;;;;;;;;;;;;;18.04;77.96;100844.69;5018199;28;1271;-91
2022/07/24 08:24:20;;;;;;;;;;;;;;;18.10;79.20;100832.34;5017964;28;1264;-90
2022/07/24 08:26:49;;;;;;;;;;;;;;;18.14;78.23;100827.78;5035394;28;796;-90
2022/07/24 08:29:25;;;;;;;;;;;;;;;18.24;78.42;100825.84;5028551;28;1902;-89
2022/07/24 08:31:50;;;;;;;;;;;;;;;18.34;78.18;100826.34;5037703;28;1300;-88
2022/07/24 08:34:16;;;;;;;;;;;;;;;18.41;78.13;100823.09;5037587;28;1606;-90
2022/07/24 08:36:47;;;;;;;;;;;;;;;18.43;78.41;100820.81;5037568;28;1308;-88
2022/07/24 08:39:13;;;;;;;;;;;;;;;18.46;78.84;100823.72;5038198;28;1142;-90
2022/07/24 08:41:42;;;;;;;;;;;;;;;18.52;78.36;100824.41;5037372;28;1323;-89
2022/07/24 08:44:11;;;;;;;;;;;;;;;18.52;77.93;100822.44;5036772;28;1378;-89
2022/07/24 08:46:42;;;;;;;;;;;;;;;18.62;78.32;100826.06;5029213;28;1190;-89
2022/07/24 08:49:09;;;;;;;;;;;;;;;18.68;77.14;100819.22;5036819;28;1901;-89
2022/07/24 08:51:43;;;;;;;;;;;;;;;18.72;77.43;100823.75;5036973;28;1188;-89
2022/07/24 08:54:09;;;;;;;;;;;;;;;18.73;78.33;100819.03;5036211;28;1327;-89
2022/07/24 08:56:37;;;;;;;;;;;;;;;18.79;78.28;100814.97;5037269;28;1386;-90
2022/07/24 08:59:03;;;;;;;;;;;;;;;18.86;77.67;100810.56;5036900;28;1284;-90
2022/07/24 09:01:29;;;;;;;;;;;;;;;18.95;78.71;100812.50;5036598;28;1282;-90
2022/07/24 09:03:55;;;;;;;;;;;;;;;18.98;78.23;100801.53;5036479;28;1255;-90
2022/07/24 09:06:20;;;;;;;;;;;;;;;19.12;77.97;100804.97;5037013;28;1307;-90
2022/07/24 09:09:12;;;;;;;;;;;;;;;19.11;76.62;100803.31;5035776;28;1898;-89
2022/07/24 09:11:39;;;;;;;;;;;;;;;19.17;76.62;100807.53;5033146;28;1449;-90
2022/07/24 09:14:31;;;;;;;;;;;;;;;19.24;75.12;100805.06;5016539;28;1272;-91
2022/07/24 09:17:04;;;;;;;;;;;;;;;19.30;76.13;100808.50;5016526;28;1226;-90
2022/07/24 09:19:31;;;;;;;;;;;;;;;19.36;75.09;100803.56;5016657;28;1412;-90
2022/07/24 09:21:57;;;;;;;;;;;;;;;19.40;74.63;100801.75;5015860;28;1411;-90
2022/07/24 09:24:23;;;;;;;;;;;;;;;19.40;74.50;100797.00;5028552;28;1369;-90
2022/07/24 09:26:56;;;;;;;;;;;;;;;19.45;74.85;100801.59;5035819;28;1457;-89
2022/07/24 09:29:23;;;;;;;;;;;;;;;19.53;75.08;100800.75;5028189;28;1950;-90
2022/07/24 12:33:52;;;;;;;;;;;;;;;23.49;60.83;100627.50;4994124;28;1149;-88
2022/07/24 12:36:18;;;;;;;;;;;;;;;23.47;58.51;100625.06;4998214;28;995;-90
2022/07/24 12:38:54;;;;;;;;;;;;;;;23.64;57.17;100616.28;4981844;28;1322;-90
2022/07/24 12:41:30;;;;;;;;;;;;;;;23.58;58.73;100622.50;4995127;28;1514;-88
2022/07/24 12:43:57;;;;;;;;;;;;;;;23.53;58.13;100618.03;4994857;28;1428;-90
2022/07/24 12:46:24;;;;;;;;;;;;;;;23.40;58.75;100608.09;4994975;28;1418;-90
2022/07/24 12:48:56;;;;;;;;;;;;;;;23.34;58.10;100609.56;4994327;28;1405;-89
2022/07/24 12:51:24;;;;;;;;;;;;;;;23.28;58.56;100611.03;4994211;28;1915;-90
2022/07/24 12:53:53;;;;;;;;;;;;;;;23.25;59.14;100608.97;4994437;28;1292;-90
2022/07/24 12:56:19;;;;;;;;;;;;;;;23.23;61.46;100600.13;4994902;28;1260;-91
2022/07/24 12:58:50;;;;;;;;;;;;;;;23.44;60.07;100589.47;4994247;28;1531;-89
2022/07/24 13:01:15;;;;;;;;;;;;;;;23.60;56.75;100589.44;4993909;28;1359;-89
2022/07/24 13:03:42;;;;;;;;;;;;;;;23.64;58.15;100588.34;4993353;28;1379;-89
2022/07/24 13:06:08;;;;;;;;;;;;;;;23.68;58.19;100594.00;4977973;28;1165;-90
2022/07/24 13:08:34;;;;;;;;;;;;;;;23.84;57.55;100593.91;4995258;28;1352;-90
2022/07/24 13:10:59;;;;;;;;;;;;;;;23.87;57.45;100587.59;4994670;28;1902;-91
2022/07/24 13:13:25;;;;;;;;;;;;;;;23.94;58.14;100576.56;4994907;28;1338;-91
2022/07/24 13:15:53;;;;;;;;;;;;;;;24.29;53.32;100577.28;4977739;28;1705;-90
2022/07/24 13:18:18;;;;;;;;;;;;;;;24.21;55.12;100564.34;4993945;28;1313;-90
2022/07/24 13:20:44;;;;;;;;;;;;;;;23.88;55.51;100564.88;4993671;28;1215;-91
2022/07/24 13:23:09;;;;;;;;;;;;;;;23.82;56.16;100562.75;4993266;28;1434;-89
2022/07/24 13:25:35;;;;;;;;;;;;;;;24.04;55.45;100551.63;4993903;28;1121;-90
2022/07/24 13:28:00;;;;;;;;;;;;;;;24.29;56.53;100546.53;4993827;28;1545;-90
2022/07/24 13:30:26;;;;;;;;;;;;;;;25.47;54.26;100544.41;4993267;28;1898;-90
2022/07/24 13:32:52;;;;;;;;;;;;;;;27.45;50.77;100547.56;4993010;28;1358;-90
2022/07/24 13:35:18;;;;;;;;;;;;;;;29.16;48.00;100531.81;4993602;28;1339;-90
2022/07/24 13:37:43;;;;;;;;;;;;;;;30.71;44.55;100533.06;4995607;28;900;-90
2022/07/24 13:40:11;;;;;;;;;;;;;;;31.67;42.25;100534.94;4991140;28;1638;-90
2022/07/24 13:42:37;;;;;;;;;;;;;;;32.62;40.87;100523.47;4974637;28;1276;-91
2022/07/24 13:45:02;;;;;;;;;;;;;;;33.32;38.06;100527.09;4973972;28;1473;-90
2022/07/24 13:47:27;;;;;;;;;;;;;;;33.73;36.89;100521.00;4989126;28;1329;-89
2022/07/24 13:49:53;;;;;;;;;;;;;;;34.12;36.95;100519.31;4993656;28;1957;-89
2022/07/24 13:52:18;;;;;;;;;;;;;;;34.56;36.39;100515.03;4994028;28;1276;-90
2022/07/24 13:54:44;;;;;;;;;;;;;;;34.89;35.60;100513.00;4994907;28;1218;-90
2022/07/24 13:57:12;;;;;;;;;;;;;;;35.07;34.06;100507.63;5005634;28;1306;-90
2022/07/24 13:59:37;;;;;;;;;;;;;;;35.35;33.77;100505.25;4997713;28;1604;-90
2022/07/24 14:02:02;;;;;;;;;;;;;;;35.17;34.56;100503.69;4996487;28;1228;-91
2022/07/24 14:04:28;;;;;;;;;;;;;;;34.57;34.78;100499.59;4996869;28;941;-89
2022/07/24 14:06:53;;;;;;;;;;;;;;;33.18;38.21;100498.97;4996352;28;1157;-89
2022/07/24 14:09:20;;;;;;;;;;;;;;;32.21;37.69;100498.22;5000837;28;1875;-91
2022/07/24 14:11:45;;;;;;;;;;;;;;;30.90;39.48;100496.97;5001372;28;1829;-91
2022/07/24 14:14:11;;;;;;;;;;;;;;;30.22;41.21;100494.69;4999921;28;1303;-90
2022/07/24 14:16:37;;;;;;;;;;;;;;;29.98;43.78;100495.66;4981690;28;1901;-90
2022/07/24 14:19:02;;;;;;;;;;;;;;;29.76;45.34;100488.53;4995971;28;1711;-89
2022/07/24 14:21:28;;;;;;;;;;;;;;;29.34;45.30;100484.66;4998489;28;1382;-91
2022/07/24 14:23:54;;;;;;;;;;;;;;;28.98;46.52;100492.41;4996956;28;1392;-91
2022/07/24 14:26:20;;;;;;;;;;;;;;;28.81;45.13;100488.41;4996816;28;1288;-90
2022/07/24 14:28:46;;;;;;;;;;;;;;;28.73;45.09;100485.97;4995713;28;1519;-89
2022/07/24 14:31:13;;;;;;;;;;;;;;;28.75;44.66;100481.50;4995247;28;1898;-90
2022/07/24 14:55:09;;;;;;;;;;;;;;;28.67;45.24;100448.94;4994386;28;1272;-88
2022/07/24 14:58:09;;;;;;;;;;;;;;;28.67;46.11;100445.34;4994983;28;1348;-89
2022/07/24 15:00:36;;;;;;;;;;;;;;;28.50;45.70;100444.94;4994517;28;1368;-90
2022/07/24 15:16:07;;;;;;;;;;;;;;;28.58;44.40;100429.63;4940572;28;1152;-90
2022/07/24 15:18:38;;;;;;;;;;;;;;;28.81;45.20;100425.59;4975859;28;1267;-89
2022/07/24 15:23:49;;;;;;;;;;;;;;;28.43;47.52;100422.41;5112681;23;1859;-85
2022/07/24 15:26:14;;;;;;;;;;;;;;;28.41;46.53;100421.22;5009677;28;899;-85
2022/07/24 15:28:39;;;;;;;;;;;;;;;28.43;45.77;100418.78;5002997;28;861;-85
2022/07/24 15:31:04;;;;;;;;;;;;;;;28.54;44.82;100414.75;5015801;28;1975;-85
2022/07/24 15:33:29;;;;;;;;;;;;;;;28.49;45.23;100405.94;5009474;28;1221;-85
2022/07/24 15:35:54;;;;;;;;;;;;;;;28.42;44.72;100408.72;5006309;28;1030;-86
2022/07/24 15:38:20;;;;;;;;;;;;;;;28.41;45.69;100402.28;5005616;28;933;-85
2022/07/24 15:40:45;;;;;;;;;;;;;;;28.50;44.98;100404.69;5003658;28;1086;-85
2022/07/24 15:43:10;;;;;;;;;;;;;;;28.45;46.17;100397.47;5002209;28;1225;-85
2022/07/24 15:45:36;;;;;;;;;;;;;;;28.35;45.00;100406.72;5003204;28;677;-85
2022/07/24 15:48:01;;;;;;;;;;;;;;;28.37;45.96;100395.88;5002123;28;1847;-85
2022/07/24 15:50:27;;;;;;;;;;;;;;;28.33;46.45;100394.28;5002182;28;1890;-85
2022/07/24 15:52:52;;;;;;;;;;;;;;;28.30;45.96;100390.25;5002330;28;1236;-85
2022/07/24 15:55:17;;;;;;;;;;;;;;;28.23;45.02;100384.63;5002884;28;920;-85
2022/07/24 15:57:42;;;;;;;;;;;;;;;28.29;45.69;100377.38;5000872;28;1232;-85
2022/07/24 16:00:08;;;;;;;;;;;;;;;28.29;46.87;100383.00;4999882;28;704;-85
2022/07/24 16:02:33;;;;;;;;;;;;;;;28.26;46.83;100377.38;4999836;28;1330;-85
2022/07/24 16:04:58;;;;;;;;;;;;;;;28.26;46.67;100378.19;5000324;28;1720;-86
2022/07/24 16:07:24;;;;;;;;;;;;;;;28.22;48.28;100378.19;5003654;28;798;-85
2022/07/24 16:09:50;;;;;;;;;;;;;;;28.22;47.34;100377.41;4999628;28;1863;-85
2022/07/24 16:12:15;;;;;;;;;;;;;;;28.27;46.27;100370.53;5001268;28;1235;-85
2022/07/24 16:14:40;;;;;;;;;;;;;;;28.26;48.40;100366.91;4994496;28;1588;-85
2022/07/24 16:17:05;;;;;;;;;;;;;;;28.22;47.94;100352.88;4996259;28;1365;-85
2022/07/24 16:19:31;;;;;;;;;;;;;;;28.26;47.65;100352.03;4997307;28;1405;-84
2022/07/24 16:21:58;;;;;;;;;;;;;;;28.27;47.11;100350.84;4997909;28;1381;-85